createdAt,value
2023-01-09T00:01:26.105Z,12.05
2023-01-09T00:03:54.229Z,9.75
2023-01-09T00:06:22.587Z,8.07
2023-01-09T00:08:50.724Z,9.88
2023-01-09T00:11:18.725Z,9.10
2023-01-09T00:13:48.243Z,8.57
2023-01-09T00:16:16.785Z,9.60
2023-01-09T00:18:44.810Z,12.20
2023-01-09T00:21:14.475Z,10.48
2023-01-09T00:23:42.562Z,10.43
2023-01-09T00:26:13.019Z,10.05
2023-01-09T00:28:41.577Z,11.35
2023-01-09T00:31:11.754Z,14.43
2023-01-09T00:33:42.815Z,16.98
2023-01-09T00:36:11.439Z,11.10
2023-01-09T00:38:39.919Z,12.07
2023-01-09T00:41:11.012Z,10.30
2023-01-09T00:43:45.153Z,12.15
2023-01-09T00:46:15.607Z,13.38
2023-01-09T00:48:46.872Z,12.45
2023-01-09T00:51:16.003Z,9.32
2023-01-09T00:53:44.560Z,12.07
2023-01-09T00:56:18.104Z,10.48
2023-01-09T00:58:46.860Z,9.15
2023-01-09T01:01:16.387Z,9.60
2023-01-09T01:03:44.329Z,9.63
2023-01-09T01:06:29.651Z,10.38
2023-01-09T01:08:57.635Z,10.52
2023-01-09T01:11:25.713Z,8.93
2023-01-09T01:13:53.581Z,7.50
2023-01-09T01:16:23.127Z,8.88
2023-01-09T01:18:51.621Z,9.88
2023-01-09T01:21:19.794Z,9.88
2023-01-09T01:23:47.872Z,10.43
2023-01-09T01:26:17.651Z,10.63
2023-01-09T01:28:45.785Z,9.95
2023-01-09T01:31:18.277Z,10.07
2023-01-09T01:33:47.616Z,12.82
2023-01-09T01:36:17.612Z,11.20
2023-01-09T01:38:47.084Z,13.02
2023-01-09T01:41:29.414Z,11.80
2023-01-09T01:43:59.793Z,12.18
2023-01-09T01:46:27.948Z,13.40
2023-01-09T01:49:01.046Z,14.23
2023-01-09T01:51:32.697Z,14.82
2023-01-09T01:54:07.916Z,13.70
2023-01-09T01:56:39.744Z,12.65
2023-01-09T01:59:12.991Z,14.88
2023-01-09T02:01:44.085Z,14.43
2023-01-09T02:04:14.069Z,15.52
2023-01-09T02:06:43.706Z,12.43
2023-01-09T02:09:15.470Z,15.73
2023-01-09T02:11:46.719Z,15.93
2023-01-09T02:14:15.339Z,15.15
2023-01-09T02:16:52.718Z,15.38
2023-01-09T02:19:50.924Z,14.35
2023-01-09T02:22:31.840Z,15.93
2023-01-09T02:25:27.193Z,16.80
2023-01-09T02:28:32.967Z,16.52
2023-01-09T02:31:09.283Z,14.77
2023-01-09T02:33:48.851Z,18.67
2023-01-09T02:36:24.740Z,17.42
2023-01-09T02:39:09.111Z,17.63
2023-01-09T02:41:44.393Z,18.13
2023-01-09T02:44:22.010Z,20.73
2023-01-09T02:47:02.104Z,23.95
2023-01-09T02:49:31.144Z,21.45
2023-01-09T02:52:08.205Z,22.75
2023-01-09T02:54:50.772Z,24.08
2023-01-09T02:57:39.803Z,23.15
2023-01-09T03:00:22.093Z,22.83
2023-01-09T03:02:54.512Z,24.65
2023-01-09T03:05:28.828Z,24.90
2023-01-09T03:08:02.654Z,26.63
2023-01-09T03:10:35.991Z,28.48
2023-01-09T03:13:04.660Z,30.63
2023-01-09T03:15:35.948Z,31.45
2023-01-09T03:18:07.089Z,29.33
2023-01-09T03:20:35.846Z,29.13
2023-01-09T03:23:06.335Z,30.70
2023-01-09T03:25:34.734Z,38.38
2023-01-09T03:28:06.995Z,28.70
2023-01-09T03:30:37.273Z,34.67
2023-01-09T03:33:06.576Z,32.67
2023-01-09T03:35:34.438Z,30.33
2023-01-09T03:38:02.388Z,29.02
2023-01-09T03:40:30.284Z,32.30
2023-01-09T03:42:58.188Z,30.80
2023-01-09T03:45:26.147Z,30.45
2023-01-09T03:47:54.154Z,29.15
2023-01-09T03:50:23.360Z,29.58
2023-01-09T03:52:51.341Z,29.58
2023-01-09T03:55:19.257Z,31.98
2023-01-09T03:57:47.042Z,29.25
2023-01-09T04:00:15.912Z,30.67
2023-01-09T04:02:43.886Z,27.38
2023-01-09T04:05:12.135Z,30.98
2023-01-09T04:07:41.707Z,34.08
2023-01-09T04:10:11.024Z,28.50
2023-01-09T04:12:39.122Z,35.70
2023-01-09T04:15:08.245Z,35.17
2023-01-09T04:17:36.178Z,33.83
2023-01-09T04:20:04.319Z,36.50
2023-01-09T04:22:32.625Z,37.13
2023-01-09T04:25:01.929Z,38.80
2023-01-09T04:27:29.793Z,39.65
2023-01-09T04:29:57.815Z,45.83
2023-01-09T04:32:27.626Z,38.28
2023-01-09T04:34:55.987Z,46.58
2023-01-09T04:37:25.416Z,50.25
2023-01-09T04:39:56.035Z,50.22
2023-01-09T04:42:25.670Z,48.75
2023-01-09T04:44:54.527Z,56.72
2023-01-09T04:47:23.838Z,55.97
2023-01-09T04:49:52.085Z,53.72
2023-01-09T04:52:20.149Z,54.05
2023-01-09T04:54:47.954Z,49.38
2023-01-09T04:57:15.915Z,54.67
2023-01-09T04:59:45.266Z,58.33
2023-01-09T05:02:13.439Z,52.17
2023-01-09T05:04:41.472Z,59.90
2023-01-09T05:07:09.421Z,54.20
2023-01-09T05:09:37.262Z,82.75
2023-01-09T05:12:05.570Z,61.40
2023-01-09T05:14:33.519Z,87.40
2023-01-09T05:17:02.738Z,79.53
2023-01-09T05:19:30.747Z,118.75
2023-01-09T05:21:58.629Z,88.13
2023-01-09T05:24:26.493Z,67.25
2023-01-09T05:26:54.470Z,83.50
2023-01-09T05:29:22.428Z,105.50
2023-01-09T05:31:50.272Z,69.35
2023-01-09T05:34:19.597Z,84.75
2023-01-09T05:36:47.619Z,105.32
2023-01-09T05:39:15.482Z,177.98
2023-01-09T05:41:43.401Z,109.00
2023-01-09T05:44:11.367Z,104.53
2023-01-09T05:46:39.283Z,61.58
2023-01-09T05:49:07.304Z,196.25
2023-01-09T05:51:36.660Z,105.93
2023-01-09T05:54:05.759Z,66.97
2023-01-09T05:56:33.730Z,102.20
2023-01-09T05:59:01.795Z,100.38
2023-01-09T06:01:30.213Z,98.93
2023-01-09T06:03:58.257Z,213.57
2023-01-09T06:06:26.312Z,79.63
2023-01-09T06:08:55.529Z,143.68
2023-01-09T06:11:23.487Z,84.53
2023-01-09T06:13:51.434Z,94.72
2023-01-09T06:16:19.539Z,96.20
2023-01-09T06:18:47.549Z,108.88
2023-01-09T06:21:15.496Z,99.78
2023-01-09T06:23:43.365Z,118.78
2023-01-09T06:26:12.666Z,111.93
2023-01-09T06:28:40.586Z,244.68
2023-01-09T06:31:08.489Z,102.00
2023-01-09T06:33:36.561Z,98.78
2023-01-09T06:36:04.895Z,85.28
2023-01-09T06:38:32.716Z,90.07
2023-01-09T06:41:00.687Z,146.30
2023-01-09T06:43:29.947Z,156.43
2023-01-09T06:45:57.835Z,106.68
2023-01-09T06:48:26.396Z,87.25
2023-01-09T06:50:54.510Z,133.45
2023-01-09T06:53:22.428Z,74.43
2023-01-09T06:55:50.586Z,70.97
2023-01-09T06:58:18.519Z,76.13
2023-01-09T07:00:49.374Z,90.50
2023-01-09T07:03:19.973Z,78.40
2023-01-09T07:05:48.198Z,56.80
2023-01-09T07:08:16.088Z,63.00
2023-01-09T07:10:44.673Z,54.17
2023-01-09T07:13:12.633Z,77.35
2023-01-09T07:15:40.605Z,63.13
2023-01-09T07:18:10.103Z,50.30
2023-01-09T07:20:40.874Z,51.65
2023-01-09T07:23:09.137Z,64.82
2023-01-09T07:25:37.383Z,80.70
2023-01-09T07:28:05.339Z,76.47
2023-01-09T07:30:33.856Z,81.47
2023-01-09T07:33:03.918Z,86.90
2023-01-09T07:35:33.580Z,65.65
2023-01-09T07:38:01.527Z,79.70
2023-01-09T07:40:29.579Z,62.40
2023-01-09T07:42:57.463Z,58.92
2023-01-09T07:45:25.455Z,50.15
2023-01-09T07:47:53.554Z,53.40
2023-01-09T07:50:21.518Z,50.92
2023-01-09T07:52:50.955Z,57.20
2023-01-09T07:55:18.952Z,70.93
2023-01-09T07:57:49.922Z,46.75
2023-01-09T08:00:18.687Z,56.15
2023-01-09T08:02:46.699Z,60.25
2023-01-09T08:05:15.950Z,50.75
2023-01-09T08:07:44.306Z,55.13
2023-01-09T08:10:14.276Z,45.28
2023-01-09T08:12:44.203Z,46.20
2023-01-09T08:15:12.885Z,46.85
2023-01-09T08:17:42.601Z,46.67
2023-01-09T08:20:12.334Z,49.58
2023-01-09T08:22:41.855Z,50.97
2023-01-09T08:25:12.428Z,55.03
2023-01-09T08:27:42.619Z,56.33
2023-01-09T08:30:11.784Z,56.55
2023-01-09T08:32:40.210Z,50.15
2023-01-09T08:35:09.247Z,50.47
2023-01-09T08:37:37.369Z,64.90
2023-01-09T08:40:05.704Z,63.22
2023-01-09T08:42:51.081Z,112.40
2023-01-09T08:45:37.775Z,56.45
2023-01-09T08:48:06.464Z,58.65
2023-01-09T08:50:34.339Z,59.13
2023-01-09T08:53:02.170Z,48.63
2023-01-09T08:55:30.167Z,55.00
2023-01-09T08:57:58.037Z,61.58
2023-01-09T09:00:27.447Z,46.28
2023-01-09T09:02:57.457Z,60.33
2023-01-09T09:05:26.569Z,106.15
2023-01-09T09:07:55.844Z,147.50
2023-01-09T09:10:25.128Z,105.63
2023-01-09T09:12:54.922Z,77.82
2023-01-09T09:15:24.611Z,79.25
2023-01-09T09:17:55.758Z,53.00
2023-01-09T09:20:25.011Z,54.20
2023-01-09T09:22:53.489Z,68.85
2023-01-09T09:25:22.504Z,80.32
2023-01-09T09:27:50.547Z,53.72
2023-01-09T09:30:20.648Z,51.97
2023-01-09T09:32:49.730Z,60.45
2023-01-09T09:35:20.994Z,49.60
2023-01-09T09:37:55.382Z,68.78
2023-01-09T09:40:36.617Z,68.13
2023-01-09T09:43:52.003Z,59.50
2023-01-09T09:46:30.196Z,57.00
2023-01-09T09:49:02.789Z,58.28
2023-01-09T09:51:45.604Z,107.35
2023-01-09T09:54:17.037Z,53.50
2023-01-09T09:56:50.728Z,72.35
2023-01-09T09:59:22.027Z,60.65
2023-01-09T10:01:56.476Z,59.75
2023-01-09T10:04:27.446Z,50.90
2023-01-09T10:07:01.336Z,53.40
2023-01-09T10:09:42.636Z,54.38
2023-01-09T10:12:25.483Z,59.55
2023-01-09T10:14:53.484Z,58.05
2023-01-09T10:17:53.274Z,52.35
2023-01-09T10:20:43.611Z,53.88
2023-01-09T10:23:28.740Z,45.60
2023-01-09T10:26:02.572Z,49.60
2023-01-09T10:28:51.467Z,46.72
2023-01-09T10:31:30.690Z,47.95
2023-01-09T10:34:10.366Z,38.65
2023-01-09T10:36:52.298Z,44.10
2023-01-09T10:39:25.897Z,44.70
2023-01-09T10:42:01.036Z,49.55
2023-01-09T10:44:35.719Z,46.08
2023-01-09T10:47:10.091Z,49.00
2023-01-09T10:49:39.585Z,51.08
2023-01-09T10:52:17.071Z,44.88
2023-01-09T10:54:53.366Z,48.53
2023-01-09T10:57:35.947Z,51.55
2023-01-09T11:00:04.887Z,65.10
2023-01-09T11:02:35.315Z,58.85
2023-01-09T11:05:03.346Z,58.90
2023-01-09T11:07:36.903Z,51.75
2023-01-09T11:10:08.743Z,54.20
2023-01-09T11:12:37.906Z,50.45
2023-01-09T11:15:29.068Z,53.15
2023-01-09T11:18:18.372Z,57.33
2023-01-09T11:20:46.462Z,51.13
2023-01-09T11:23:32.784Z,51.97
2023-01-09T11:26:04.479Z,47.75
2023-01-09T11:28:32.632Z,43.13
2023-01-09T11:31:02.630Z,44.75
2023-01-09T11:33:32.559Z,42.65
2023-01-09T11:36:08.117Z,53.28
2023-01-09T11:38:49.533Z,45.65
2023-01-09T11:41:22.201Z,56.38
2023-01-09T11:43:52.335Z,50.83
2023-01-09T11:46:39.663Z,53.58
2023-01-09T11:49:23.571Z,47.03
2023-01-09T11:52:16.470Z,56.72
2023-01-09T11:54:48.720Z,45.35
2023-01-09T11:57:18.571Z,64.05
2023-01-09T11:59:46.555Z,55.05
2023-01-09T12:02:43.455Z,61.65
2023-01-09T12:05:22.499Z,55.00
2023-01-09T12:11:39.527Z,46.67
2023-01-09T12:14:50.763Z,39.65
2023-01-09T12:17:32.123Z,38.25
2023-01-09T12:20:12.920Z,38.70
2023-01-09T12:22:48.953Z,47.67
2023-01-09T12:25:29.128Z,45.35
2023-01-09T12:28:10.666Z,43.72
2023-01-09T12:31:01.275Z,45.15
2023-01-09T12:33:42.851Z,38.10
2023-01-09T12:36:24.339Z,48.17
2023-01-09T12:38:56.522Z,46.50
2023-01-09T12:41:56.853Z,46.40
2023-01-09T12:44:52.564Z,44.72
2023-01-09T12:47:44.517Z,37.35
2023-01-09T12:50:45.704Z,42.60
2023-01-09T12:53:20.072Z,59.53
2023-01-09T12:55:52.527Z,43.63
2023-01-09T12:58:30.801Z,42.90
2023-01-09T13:01:01.308Z,64.00
2023-01-09T13:03:35.594Z,52.10
2023-01-09T13:06:09.121Z,58.65
2023-01-09T13:08:40.615Z,49.65
2023-01-09T13:11:20.463Z,45.88
2023-01-09T13:13:53.961Z,46.63
2023-01-09T13:16:28.117Z,50.25
2023-01-09T13:19:00.339Z,48.30
2023-01-09T13:21:30.247Z,48.80
2023-01-09T13:24:05.232Z,45.47
2023-01-09T13:26:38.690Z,53.20
2023-01-09T13:29:14.002Z,48.97
2023-01-09T13:31:59.825Z,48.83
2023-01-09T13:34:30.597Z,54.35
2023-01-09T13:37:00.716Z,57.55
2023-01-09T13:39:32.334Z,57.00
2023-01-09T13:42:19.917Z,60.47
2023-01-09T13:44:49.771Z,54.50
2023-01-09T13:47:23.427Z,70.38
2023-01-09T13:50:24.540Z,81.15
2023-01-09T13:52:54.439Z,69.32
2023-01-09T13:55:36.132Z,92.45
2023-01-09T13:58:23.765Z,89.50
2023-01-09T14:00:57.573Z,76.18
2023-01-09T14:03:30.029Z,91.43
2023-01-09T14:06:17.367Z,90.97
2023-01-09T14:08:49.196Z,85.80
2023-01-09T14:11:29.175Z,78.72
2023-01-09T14:14:05.060Z,75.53
2023-01-09T14:16:33.645Z,74.47
2023-01-09T14:19:18.131Z,67.05
2023-01-09T14:21:49.032Z,61.75
2023-01-09T14:24:26.076Z,64.10
2023-01-09T14:26:57.161Z,68.90
2023-01-09T14:29:47.664Z,65.47
2023-01-09T14:32:46.706Z,64.43
2023-01-09T14:35:19.011Z,66.65
2023-01-09T14:37:54.495Z,59.33
2023-01-09T14:40:25.099Z,56.50
2023-01-09T14:42:55.368Z,58.63
2023-01-09T14:45:25.383Z,58.20
2023-01-09T14:47:59.325Z,56.75
2023-01-09T14:50:34.706Z,57.47
2023-01-09T14:53:08.167Z,53.63
2023-01-09T14:55:52.310Z,54.72
2023-01-09T14:58:22.812Z,50.55
2023-01-09T15:00:56.798Z,50.42
2023-01-09T15:03:27.160Z,41.03
2023-01-09T15:05:55.215Z,36.10
2023-01-09T15:08:25.009Z,30.25
2023-01-09T15:10:55.813Z,29.75
2023-01-09T15:13:30.270Z,30.00
2023-01-09T15:15:59.498Z,31.63
2023-01-09T15:18:31.773Z,27.67
2023-01-09T15:21:03.084Z,26.15
2023-01-09T15:23:32.323Z,28.33
2023-01-09T15:26:14.470Z,28.98
2023-01-09T15:28:44.192Z,31.75
2023-01-09T15:31:16.342Z,27.98
2023-01-09T15:33:46.643Z,31.48
2023-01-09T15:36:18.655Z,30.17
2023-01-09T15:38:47.967Z,33.03
2023-01-09T15:41:40.741Z,31.67
2023-01-09T15:44:15.041Z,34.42
2023-01-09T15:46:46.277Z,31.98
2023-01-09T15:49:15.152Z,37.55
2023-01-09T15:51:44.881Z,38.25
2023-01-09T15:54:15.743Z,37.30
2023-01-09T15:56:46.459Z,41.70
2023-01-09T15:59:27.034Z,38.63
2023-01-09T16:02:14.538Z,40.15
2023-01-09T16:04:42.907Z,42.53
2023-01-09T16:07:16.266Z,43.35
2023-01-09T16:09:47.530Z,45.95
2023-01-09T16:12:23.517Z,50.90
2023-01-09T16:14:54.361Z,49.38
2023-01-09T16:17:27.406Z,58.40
2023-01-09T16:19:57.983Z,64.07
2023-01-09T16:22:28.266Z,60.17
2023-01-09T16:24:58.649Z,65.18
2023-01-09T16:27:30.806Z,67.45
2023-01-09T16:29:59.997Z,79.32
2023-01-09T16:32:30.804Z,70.95
2023-01-09T16:35:05.395Z,65.10
2023-01-09T16:37:33.820Z,55.00
2023-01-09T16:40:24.312Z,57.22
2023-01-09T16:43:01.709Z,51.97
2023-01-09T16:45:32.903Z,55.38
2023-01-09T16:48:01.480Z,49.03
2023-01-09T16:50:29.839Z,53.10
2023-01-09T16:52:58.579Z,51.13
2023-01-09T16:55:26.549Z,55.10
2023-01-09T16:57:56.234Z,63.90
2023-01-09T17:00:24.544Z,64.60
2023-01-09T17:02:52.341Z,55.10
2023-01-09T17:05:20.201Z,61.35
2023-01-09T17:07:48.147Z,52.75
2023-01-09T17:10:21.932Z,54.70
2023-01-09T17:12:50.374Z,53.60
2023-01-09T17:15:19.560Z,49.67
2023-01-09T17:17:47.345Z,41.78
2023-01-09T17:20:18.103Z,40.55
2023-01-09T17:22:46.021Z,54.53
2023-01-09T17:25:35.418Z,46.83
2023-01-09T17:28:21.806Z,37.35
2023-01-09T17:30:51.150Z,41.97
2023-01-09T17:33:20.221Z,40.17
2023-01-09T17:35:48.054Z,43.78
2023-01-09T17:38:16.876Z,46.83
2023-01-09T17:40:45.121Z,43.85
2023-01-09T17:43:13.257Z,47.03
2023-01-09T17:45:42.499Z,51.85
2023-01-09T17:48:16.365Z,54.58
2023-01-09T17:50:44.804Z,63.40
2023-01-09T17:53:12.853Z,52.63
2023-01-09T17:55:41.528Z,64.75
2023-01-09T17:58:19.857Z,57.50
2023-01-09T18:00:50.670Z,61.20
2023-01-09T18:03:23.146Z,64.97
2023-01-09T18:05:51.257Z,59.55
2023-01-09T18:08:19.783Z,54.40
2023-01-09T18:10:48.766Z,53.67
2023-01-09T18:13:16.970Z,63.40
2023-01-09T18:15:45.489Z,59.92
2023-01-09T18:18:14.209Z,56.25
2023-01-09T18:20:44.246Z,50.13
2023-01-09T18:23:13.128Z,50.78
2023-01-09T18:25:42.428Z,54.75
2023-01-09T18:28:11.454Z,42.97
2023-01-09T18:30:39.429Z,43.42
2023-01-09T18:33:07.350Z,38.42
2023-01-09T18:35:35.198Z,41.70
2023-01-09T18:38:04.507Z,43.30
2023-01-09T18:40:33.247Z,36.50
2023-01-09T18:43:04.943Z,37.58
2023-01-09T18:45:33.253Z,36.33
2023-01-09T18:48:01.181Z,40.65
2023-01-09T18:50:29.067Z,35.33
2023-01-09T18:52:57.021Z,42.33
2023-01-09T18:55:26.540Z,36.58
2023-01-09T18:57:56.729Z,44.13
2023-01-09T19:00:24.884Z,45.38
2023-01-09T19:02:52.944Z,48.70
2023-01-09T19:05:20.824Z,54.75
2023-01-09T19:07:48.728Z,51.50
2023-01-09T19:10:16.942Z,54.33
2023-01-09T19:12:46.183Z,59.88
2023-01-09T19:15:14.129Z,63.88
2023-01-09T19:17:42.287Z,55.88
2023-01-09T19:20:11.582Z,62.08
2023-01-09T19:22:39.944Z,65.65
2023-01-09T19:25:08.684Z,69.60
2023-01-09T19:27:36.543Z,58.42
2023-01-09T19:30:07.471Z,68.15
2023-01-09T19:32:35.374Z,67.28
2023-01-09T19:35:03.185Z,67.07
2023-01-09T19:37:31.144Z,62.55
2023-01-09T19:39:59.307Z,45.05
2023-01-09T19:42:27.147Z,45.58
2023-01-09T19:44:55.067Z,48.45
2023-01-09T19:47:24.271Z,52.25
2023-01-09T19:49:52.098Z,50.42
2023-01-09T19:52:20.338Z,48.03
2023-01-09T19:54:48.383Z,44.60
2023-01-09T19:57:16.209Z,41.63
2023-01-09T19:59:44.233Z,38.00
2023-01-09T20:02:13.251Z,29.15
2023-01-09T20:04:42.363Z,34.90
2023-01-09T20:07:10.365Z,31.70
2023-01-09T20:09:38.459Z,26.45
2023-01-09T20:12:06.899Z,31.90
2023-01-09T20:14:37.184Z,33.40
2023-01-09T20:17:05.333Z,27.85
2023-01-09T20:19:33.782Z,24.17
2023-01-09T20:22:03.482Z,23.83
2023-01-09T20:24:31.441Z,22.23
2023-01-09T20:26:59.266Z,19.70
2023-01-09T20:29:27.180Z,21.98
2023-01-09T20:31:55.183Z,22.35
2023-01-09T20:34:23.114Z,26.30
2023-01-09T20:36:51.101Z,22.42
2023-01-09T20:39:20.452Z,22.67
2023-01-09T20:41:48.383Z,19.27
2023-01-09T20:44:16.769Z,19.10
2023-01-09T20:46:48.125Z,21.13
2023-01-09T20:49:18.365Z,20.67
2023-01-09T20:51:47.698Z,22.17
